sensor_id;sensor_type;location;lat;lon;timestamp;pressure;altitude;pressure_sealevel;temperature;humidity
72585;BME280;60618;40.084;32.908;2022-11-03T00:00:23;89925.97;;;8.20;49.63
72585;BME280;60618;40.084;32.908;2022-11-03T00:02:50;89921.56;;;8.36;48.74
72585;BME280;60618;40.084;32.908;2022-11-03T00:05:17;89923.41;;;8.44;48.87
72585;BME280;60618;40.084;32.908;2022-11-03T00:07:44;89924.91;;;8.45;48.74
72585;BME280;60618;40.084;32.908;2022-11-03T00:10:11;89923.28;;;8.48;48.26
72585;BME280;60618;40.084;32.908;2022-11-03T00:12:37;89926.25;;;8.32;50.07
72585;BME280;60618;40.084;32.908;2022-11-03T00:15:04;89927.63;;;8.18;50.05
72585;BME280;60618;40.084;32.908;2022-11-03T00:17:31;89921.53;;;8.17;49.20
72585;BME280;60618;40.084;32.908;2022-11-03T00:19:59;89913.28;;;8.24;48.74
72585;BME280;60618;40.084;32.908;2022-11-03T00:22:25;89909.31;;;8.38;48.48
72585;BME280;60618;40.084;32.908;2022-11-03T00:24:52;89917.06;;;8.51;48.47
72585;BME280;60618;40.084;32.908;2022-11-03T00:27:19;89914.44;;;8.42;48.97
72585;BME280;60618;40.084;32.908;2022-11-03T00:29:45;89930.44;;;7.68;51.18
72585;BME280;60618;40.084;32.908;2022-11-03T00:32:12;89926.53;;;6.96;52.38
72585;BME280;60618;40.084;32.908;2022-11-03T00:34:39;89932.94;;;6.06;54.46
72585;BME280;60618;40.084;32.908;2022-11-03T00:37:06;89924.91;;;5.75;55.64
72585;BME280;60618;40.084;32.908;2022-11-03T00:39:32;89922.16;;;6.22;54.53
72585;BME280;60618;40.084;32.908;2022-11-03T00:41:59;89918.19;;;6.58;53.07
72585;BME280;60618;40.084;32.908;2022-11-03T00:44:26;89908.41;;;6.76;52.96
72585;BME280;60618;40.084;32.908;2022-11-03T00:46:53;89900.34;;;6.89;53.38
72585;BME280;60618;40.084;32.908;2022-11-03T00:49:20;89910.97;;;7.07;53.59
72585;BME280;60618;40.084;32.908;2022-11-03T00:51:46;89907.31;;;6.65;54.56
72585;BME280;60618;40.084;32.908;2022-11-03T00:54:13;89911.66;;;6.40;54.34
72585;BME280;60618;40.084;32.908;2022-11-03T00:56:41;89912.22;;;6.66;53.65
72585;BME280;60618;40.084;32.908;2022-11-03T00:59:09;89919.78;;;6.95;53.56
72585;BME280;60618;40.084;32.908;2022-11-03T01:01:38;89902.59;;;7.18;52.21
72585;BME280;60618;40.084;32.908;2022-11-03T01:04:12;89916.09;;;6.93;54.04
72585;BME280;60618;40.084;32.908;2022-11-03T01:06:43;89915.97;;;7.05;52.92
72585;BME280;60618;40.084;32.908;2022-11-03T01:09:10;89916.56;;;7.19;52.76
72585;BME280;60618;40.084;32.908;2022-11-03T01:11:36;89908.59;;;7.09;53.17
72585;BME280;60618;40.084;32.908;2022-11-03T01:14:04;89912.47;;;7.27;52.63
72585;BME280;60618;40.084;32.908;2022-11-03T01:16:31;89908.66;;;7.46;51.80
72585;BME280;60618;40.084;32.908;2022-11-03T01:18:58;89903.06;;;7.62;51.81
72585;BME280;60618;40.084;32.908;2022-11-03T01:21:25;89895.56;;;7.52;52.20
72585;BME280;60618;40.084;32.908;2022-11-03T01:23:52;89916.47;;;7.77;51.50
72585;BME280;60618;40.084;32.908;2022-11-03T01:26:19;89916.19;;;7.48;53.17
72585;BME280;60618;40.084;32.908;2022-11-03T01:28:46;89914.50;;;7.04;53.47
72585;BME280;60618;40.084;32.908;2022-11-03T01:31:18;89905.41;;;7.24;52.91
72585;BME280;60618;40.084;32.908;2022-11-03T01:33:46;89918.84;;;6.80;54.52
72585;BME280;60618;40.084;32.908;2022-11-03T01:36:15;89923.50;;;6.58;54.20
72585;BME280;60618;40.084;32.908;2022-11-03T01:38:42;89918.88;;;6.89;52.56
72585;BME280;60618;40.084;32.908;2022-11-03T01:41:20;89917.16;;;7.04;52.49
72585;BME280;60618;40.084;32.908;2022-11-03T01:49:47;89918.38;;;7.31;53.53
72585;BME280;60618;40.084;32.908;2022-11-03T01:52:23;89923.53;;;6.36;55.54
72585;BME280;60618;40.084;32.908;2022-11-03T01:54:57;89921.56;;;5.52;57.01
72585;BME280;60618;40.084;32.908;2022-11-03T01:57:32;89919.84;;;5.80;56.15
72585;BME280;60618;40.084;32.908;2022-11-03T02:00:01;89923.59;;;6.14;55.05
72585;BME280;60618;40.084;32.908;2022-11-03T02:02:28;89912.38;;;6.32;54.37
72585;BME280;60618;40.084;32.908;2022-11-03T02:04:57;89914.47;;;6.46;55.71
72585;BME280;60618;40.084;32.908;2022-11-03T02:10:12;89918.91;;;7.07;53.43
72585;BME280;60618;40.084;32.908;2022-11-03T02:12:39;89926.03;;;6.70;55.98
72585;BME280;60618;40.084;32.908;2022-11-03T02:15:11;89924.13;;;6.71;55.07
72585;BME280;60618;40.084;32.908;2022-11-03T02:17:40;89936.09;;;6.53;54.67
72585;BME280;60618;40.084;32.908;2022-11-03T02:28:19;89923.28;;;6.83;53.88
72585;BME280;60618;40.084;32.908;2022-11-03T02:31:01;89924.47;;;6.91;54.18
72585;BME280;60618;40.084;32.908;2022-11-03T02:33:52;89929.63;;;6.54;55.99
72585;BME280;60618;40.084;32.908;2022-11-03T02:36:29;89917.38;;;6.08;56.88
72585;BME280;60618;40.084;32.908;2022-11-03T02:39:06;89931.38;;;6.17;56.67
72585;BME280;60618;40.084;32.908;2022-11-03T02:41:36;89925.31;;;6.08;56.74
72585;BME280;60618;40.084;32.908;2022-11-03T02:44:05;89923.19;;;6.24;56.13
72585;BME280;60618;40.084;32.908;2022-11-03T02:46:33;89924.56;;;6.29;55.97
72585;BME280;60618;40.084;32.908;2022-11-03T02:49:02;89929.09;;;6.29;55.57
72585;BME280;60618;40.084;32.908;2022-11-03T02:51:29;89930.69;;;6.26;55.87
72585;BME280;60618;40.084;32.908;2022-11-03T02:54:10;89928.94;;;6.23;56.37
72585;BME280;60618;40.084;32.908;2022-11-03T02:56:52;89931.88;;;6.25;56.36
72585;BME280;60618;40.084;32.908;2022-11-03T02:59:24;89933.75;;;6.55;54.97
72585;BME280;60618;40.084;32.908;2022-11-03T03:02:00;89925.88;;;6.74;54.36
72585;BME280;60618;40.084;32.908;2022-11-03T03:04:38;89919.47;;;6.84;53.80
72585;BME280;60618;40.084;32.908;2022-11-03T03:07:09;89922.44;;;6.95;54.08
72585;BME280;60618;40.084;32.908;2022-11-03T03:10:01;89929.22;;;7.05;53.63
72585;BME280;60618;40.084;32.908;2022-11-03T03:12:30;89934.06;;;7.07;54.72
72585;BME280;60618;40.084;32.908;2022-11-03T03:15:00;89934.25;;;6.32;56.23
72585;BME280;60618;40.084;32.908;2022-11-03T03:17:44;89922.06;;;6.04;56.94
72585;BME280;60618;40.084;32.908;2022-11-03T03:20:32;89925.06;;;6.15;56.42
72585;BME280;60618;40.084;32.908;2022-11-03T03:23:11;89921.78;;;6.11;56.54
72585;BME280;60618;40.084;32.908;2022-11-03T03:25:51;89925.94;;;6.43;55.36
72585;BME280;60618;40.084;32.908;2022-11-03T03:28:26;89924.22;;;6.58;54.80
72585;BME280;60618;40.084;32.908;2022-11-03T03:30:56;89917.31;;;6.61;54.73
72585;BME280;60618;40.084;32.908;2022-11-03T03:33:27;89920.72;;;6.61;54.36
72585;BME280;60618;40.084;32.908;2022-11-03T03:35:56;89928.50;;;6.65;55.04
72585;BME280;60618;40.084;32.908;2022-11-03T03:38:28;89929.78;;;6.51;56.23
72585;BME280;60618;40.084;32.908;2022-11-03T03:40:58;89922.28;;;6.49;56.27
72585;BME280;60618;40.084;32.908;2022-11-03T03:43:26;89926.09;;;6.48;56.26
72585;BME280;60618;40.084;32.908;2022-11-03T03:45:58;89911.03;;;6.67;54.68
72585;BME280;60618;40.084;32.908;2022-11-03T03:48:26;89916.53;;;6.91;54.41
72585;BME280;60618;40.084;32.908;2022-11-03T03:50:53;89910.56;;;6.60;56.12
72585;BME280;60618;40.084;32.908;2022-11-03T03:53:20;89914.59;;;5.89;58.01
72585;BME280;60618;40.084;32.908;2022-11-03T03:55:50;89922.38;;;6.06;56.43
72585;BME280;60618;40.084;32.908;2022-11-03T03:58:17;89912.97;;;6.05;57.14
72585;BME280;60618;40.084;32.908;2022-11-03T04:00:49;89915.97;;;6.16;56.39
72585;BME280;60618;40.084;32.908;2022-11-03T04:03:19;89915.56;;;6.26;55.53
72585;BME280;60618;40.084;32.908;2022-11-03T04:05:46;89906.72;;;6.51;55.10
72585;BME280;60618;40.084;32.908;2022-11-03T04:08:14;89914.38;;;6.59;54.76
72585;BME280;60618;40.084;32.908;2022-11-03T04:10:42;89914.59;;;6.42;56.43
72585;BME280;60618;40.084;32.908;2022-11-03T04:13:09;89911.22;;;6.42;55.92
72585;BME280;60618;40.084;32.908;2022-11-03T04:15:36;89911.44;;;6.57;55.35
72585;BME280;60618;40.084;32.908;2022-11-03T04:18:03;89914.25;;;6.71;55.04
72585;BME280;60618;40.084;32.908;2022-11-03T04:20:31;89916.22;;;6.89;54.42
72585;BME280;60618;40.084;32.908;2022-11-03T04:22:58;89918.56;;;6.78;55.55
72585;BME280;60618;40.084;32.908;2022-11-03T04:25:24;89918.50;;;6.60;56.14
72585;BME280;60618;40.084;32.908;2022-11-03T04:27:51;89918.50;;;6.60;55.98
72585;BME280;60618;40.084;32.908;2022-11-03T04:30:19;89917.66;;;6.72;55.83
72585;BME280;60618;40.084;32.908;2022-11-03T04:32:48;89931.19;;;6.74;55.65
72585;BME280;60618;40.084;32.908;2022-11-03T04:35:21;89927.78;;;6.02;57.41
72585;BME280;60618;40.084;32.908;2022-11-03T04:38:01;89936.72;;;6.26;56.44
72585;BME280;60618;40.084;32.908;2022-11-03T04:40:29;89945.13;;;6.34;57.07
72585;BME280;60618;40.084;32.908;2022-11-03T04:42:56;89939.16;;;6.43;56.33
72585;BME280;60618;40.084;32.908;2022-11-03T04:45:28;89945.00;;;6.69;55.74
72585;BME280;60618;40.084;32.908;2022-11-03T04:47:57;89943.69;;;6.82;56.11
72585;BME280;60618;40.084;32.908;2022-11-03T04:50:25;89943.66;;;7.23;54.80
72585;BME280;60618;40.084;32.908;2022-11-03T04:52:57;89945.00;;;7.55;54.82
72585;BME280;60618;40.084;32.908;2022-11-03T04:55:24;89951.94;;;7.80;54.79
72585;BME280;60618;40.084;32.908;2022-11-03T04:58:03;89947.25;;;7.93;53.95
72585;BME280;60618;40.084;32.908;2022-11-03T05:00:30;89956.06;;;7.90;53.67
72585;BME280;60618;40.084;32.908;2022-11-03T05:02:57;89958.13;;;7.95;53.14
72585;BME280;60618;40.084;32.908;2022-11-03T05:05:25;89954.59;;;7.89;52.70
72585;BME280;60618;40.084;32.908;2022-11-03T05:07:56;89962.84;;;7.73;53.94
72585;BME280;60618;40.084;32.908;2022-11-03T05:10:25;89965.50;;;7.73;53.68
72585;BME280;60618;40.084;32.908;2022-11-03T05:12:54;89967.41;;;7.90;53.42
72585;BME280;60618;40.084;32.908;2022-11-03T05:15:28;89968.44;;;8.20;52.86
72585;BME280;60618;40.084;32.908;2022-11-03T05:17:56;89971.63;;;8.52;52.67
72585;BME280;60618;40.084;32.908;2022-11-03T05:20:44;89973.81;;;8.72;51.59
72585;BME280;60618;40.084;32.908;2022-11-03T05:23:13;89973.16;;;8.86;51.47
72585;BME280;60618;40.084;32.908;2022-11-03T05:25:41;89977.63;;;9.13;50.76
72585;BME280;60618;40.084;32.908;2022-11-03T05:28:19;89990.81;;;9.31;51.13
72585;BME280;60618;40.084;32.908;2022-11-03T05:30:48;89986.81;;;9.03;50.14
72585;BME280;60618;40.084;32.908;2022-11-03T05:33:24;89994.28;;;8.71;50.88
72585;BME280;60618;40.084;32.908;2022-11-03T05:35:51;89988.47;;;8.49;51.25
72585;BME280;60618;40.084;32.908;2022-11-03T05:38:20;89987.81;;;8.72;50.03
72585;BME280;60618;40.084;32.908;2022-11-03T05:40:52;89994.16;;;8.75;50.44
72585;BME280;60618;40.084;32.908;2022-11-03T05:43:20;89993.16;;;8.63;49.49
72585;BME280;60618;40.084;32.908;2022-11-03T05:45:57;90011.72;;;8.72;50.05
72585;BME280;60618;40.084;32.908;2022-11-03T05:48:31;90003.38;;;8.89;50.00
72585;BME280;60618;40.084;32.908;2022-11-03T05:50:59;90007.91;;;9.06;49.84
72585;BME280;60618;40.084;32.908;2022-11-03T05:53:30;90020.59;;;9.12;49.72
72585;BME280;60618;40.084;32.908;2022-11-03T05:55:59;90017.22;;;9.02;49.14
72585;BME280;60618;40.084;32.908;2022-11-03T05:58:32;90018.66;;;9.12;49.26
72585;BME280;60618;40.084;32.908;2022-11-03T06:01:04;90016.56;;;9.16;48.92
72585;BME280;60618;40.084;32.908;2022-11-03T06:03:35;90020.25;;;8.76;48.90
72585;BME280;60618;40.084;32.908;2022-11-03T06:06:12;90017.00;;;8.81;49.28
72585;BME280;60618;40.084;32.908;2022-11-03T06:08:41;90023.84;;;8.55;50.36
72585;BME280;60618;40.084;32.908;2022-11-03T06:11:22;90017.38;;;8.38;50.25
72585;BME280;60618;40.084;32.908;2022-11-03T06:13:50;90018.22;;;8.53;50.59
72585;BME280;60618;40.084;32.908;2022-11-03T06:16:36;90019.88;;;8.41;50.96
72585;BME280;60618;40.084;32.908;2022-11-03T06:19:26;90022.66;;;8.65;49.71
72585;BME280;60618;40.084;32.908;2022-11-03T06:21:57;90013.75;;;8.77;49.01
72585;BME280;60618;40.084;32.908;2022-11-03T06:24:29;90022.34;;;8.63;49.24
72585;BME280;60618;40.084;32.908;2022-11-03T06:26:56;90022.75;;;8.80;48.96
72585;BME280;60618;40.084;32.908;2022-11-03T06:29:23;90019.56;;;9.09;49.05
72585;BME280;60618;40.084;32.908;2022-11-03T06:31:53;90021.47;;;9.42;48.04
72585;BME280;60618;40.084;32.908;2022-11-03T06:36:56;90015.47;;;9.89;47.82
72585;BME280;60618;40.084;32.908;2022-11-03T06:39:23;90008.34;;;10.10;46.81
72585;BME280;60618;40.084;32.908;2022-11-03T06:41:51;90018.31;;;10.24;47.46
72585;BME280;60618;40.084;32.908;2022-11-03T06:44:24;90022.50;;;10.16;47.13
72585;BME280;60618;40.084;32.908;2022-11-03T06:46:59;90022.06;;;9.93;46.88
72585;BME280;60618;40.084;32.908;2022-11-03T06:49:32;90022.28;;;10.05;46.42
72585;BME280;60618;40.084;32.908;2022-11-03T06:57:45;90019.00;;;10.10;47.17
72585;BME280;60618;40.084;32.908;2022-11-03T07:00:26;90021.44;;;10.22;46.72
72585;BME280;60618;40.084;32.908;2022-11-03T07:03:22;90019.94;;;10.45;46.96
72585;BME280;60618;40.084;32.908;2022-11-03T07:05:49;90019.28;;;10.65;46.39
72585;BME280;60618;40.084;32.908;2022-11-03T07:08:21;90019.28;;;10.50;46.25
72585;BME280;60618;40.084;32.908;2022-11-03T07:10:58;90015.06;;;10.59;46.52
72585;BME280;60618;40.084;32.908;2022-11-03T07:13:26;90018.03;;;10.90;45.88
72585;BME280;60618;40.084;32.908;2022-11-03T07:15:54;90012.00;;;11.25;45.93
72585;BME280;60618;40.084;32.908;2022-11-03T07:18:25;90007.44;;;11.60;45.40
72585;BME280;60618;40.084;32.908;2022-11-03T07:20:53;90008.06;;;11.90;44.70
72585;BME280;60618;40.084;32.908;2022-11-03T07:23:24;90005.75;;;11.98;44.60
72585;BME280;60618;40.084;32.908;2022-11-03T07:25:55;90010.81;;;11.96;44.82
72585;BME280;60618;40.084;32.908;2022-11-03T07:28:28;90013.28;;;12.00;45.05
72585;BME280;60618;40.084;32.908;2022-11-03T07:30:55;90006.28;;;11.82;45.38
72585;BME280;60618;40.084;32.908;2022-11-03T07:33:26;90004.16;;;12.06;44.84
72585;BME280;60618;40.084;32.908;2022-11-03T07:35:56;90005.81;;;12.24;44.64
72585;BME280;60618;40.084;32.908;2022-11-03T07:38:42;90005.34;;;12.26;44.46
72585;BME280;60618;40.084;32.908;2022-11-03T07:41:16;90001.06;;;11.93;45.43
72585;BME280;60618;40.084;32.908;2022-11-03T07:43:49;89999.06;;;12.08;45.23
72585;BME280;60618;40.084;32.908;2022-11-03T07:46:20;89997.53;;;12.48;45.10
72585;BME280;60618;40.084;32.908;2022-11-03T07:51:47;90000.53;;;12.82;44.61
72585;BME280;60618;40.084;32.908;2022-11-03T07:54:21;90004.25;;;12.90;44.20
72585;BME280;60618;40.084;32.908;2022-11-03T07:56:57;90009.94;;;12.97;44.26
72585;BME280;60618;40.084;32.908;2022-11-03T07:59:38;89999.38;;;13.14;43.22
72585;BME280;60618;40.084;32.908;2022-11-03T08:02:30;90008.34;;;13.43;43.18
72585;BME280;60618;40.084;32.908;2022-11-03T08:04:58;89995.56;;;13.58;42.45
72585;BME280;60618;40.084;32.908;2022-11-03T08:07:25;89998.84;;;13.79;42.35
72585;BME280;60618;40.084;32.908;2022-11-03T08:09:52;89994.53;;;13.92;42.37
72585;BME280;60618;40.084;32.908;2022-11-03T08:12:20;89987.44;;;13.84;41.90
72585;BME280;60618;40.084;32.908;2022-11-03T08:14:46;89994.34;;;14.07;41.90
72585;BME280;60618;40.084;32.908;2022-11-03T08:17:13;89980.09;;;14.33;41.63
72585;BME280;60618;40.084;32.908;2022-11-03T08:19:40;89985.97;;;14.42;41.37
72585;BME280;60618;40.084;32.908;2022-11-03T08:22:07;89985.78;;;14.52;41.71
72585;BME280;60618;40.084;32.908;2022-11-03T08:24:34;89980.94;;;14.72;40.62
72585;BME280;60618;40.084;32.908;2022-11-03T08:27:01;89980.47;;;14.85;40.22
72585;BME280;60618;40.084;32.908;2022-11-03T08:29:28;89973.38;;;14.82;40.63
72585;BME280;60618;40.084;32.908;2022-11-03T08:31:55;89973.16;;;15.08;40.26
72585;BME280;60618;40.084;32.908;2022-11-03T08:34:22;89959.03;;;15.24;39.99
72585;BME280;60618;40.084;32.908;2022-11-03T08:36:49;89957.56;;;15.12;39.92
72585;BME280;60618;40.084;32.908;2022-11-03T08:39:15;89958.31;;;15.01;39.86
72585;BME280;60618;40.084;32.908;2022-11-03T08:41:42;89963.91;;;15.15;40.05
72585;BME280;60618;40.084;32.908;2022-11-03T08:44:09;89968.56;;;15.20;39.80
72585;BME280;60618;40.084;32.908;2022-11-03T08:46:36;89955.59;;;15.18;39.83
72585;BME280;60618;40.084;32.908;2022-11-03T08:49:02;89958.53;;;15.09;39.82
72585;BME280;60618;40.084;32.908;2022-11-03T08:51:29;89953.91;;;15.21;39.93
72585;BME280;60618;40.084;32.908;2022-11-03T08:53:56;89947.31;;;15.33;39.64
72585;BME280;60618;40.084;32.908;2022-11-03T08:56:23;89957.31;;;15.32;39.79
72585;BME280;60618;40.084;32.908;2022-11-03T08:58:50;89943.16;;;15.32;39.09
72585;BME280;60618;40.084;32.908;2022-11-03T09:01:17;89943.66;;;15.47;39.51
72585;BME280;60618;40.084;32.908;2022-11-03T09:03:43;89949.97;;;15.55;39.22
72585;BME280;60618;40.084;32.908;2022-11-03T09:06:10;89938.53;;;15.27;39.78
72585;BME280;60618;40.084;32.908;2022-11-03T09:08:37;89934.88;;;15.41;39.80
72585;BME280;60618;40.084;32.908;2022-11-03T09:11:24;89941.66;;;15.53;39.05
72585;BME280;60618;40.084;32.908;2022-11-03T09:13:51;89926.53;;;15.61;39.57
72585;BME280;60618;40.084;32.908;2022-11-03T09:16:18;89928.25;;;15.65;39.52
72585;BME280;60618;40.084;32.908;2022-11-03T09:18:45;89927.72;;;15.83;38.88
72585;BME280;60618;40.084;32.908;2022-11-03T09:21:12;89926.47;;;15.89;38.76
72585;BME280;60618;40.084;32.908;2022-11-03T09:23:39;89924.22;;;16.05;38.53
72585;BME280;60618;40.084;32.908;2022-11-03T09:26:09;89913.31;;;15.86;38.66
72585;BME280;60618;40.084;32.908;2022-11-03T09:28:36;89914.84;;;16.23;38.25
72585;BME280;60618;40.084;32.908;2022-11-03T09:31:03;89910.09;;;15.93;38.38
72585;BME280;60618;40.084;32.908;2022-11-03T09:33:30;89910.78;;;16.10;38.64
72585;BME280;60618;40.084;32.908;2022-11-03T09:35:57;89899.97;;;16.22;38.44
72585;BME280;60618;40.084;32.908;2022-11-03T09:38:24;89908.91;;;16.41;38.09
72585;BME280;60618;40.084;32.908;2022-11-03T09:40:51;89904.84;;;16.64;37.87
72585;BME280;60618;40.084;32.908;2022-11-03T09:43:18;89905.72;;;16.84;37.62
72585;BME280;60618;40.084;32.908;2022-11-03T09:45:45;89899.13;;;16.85;36.60
72585;BME280;60618;40.084;32.908;2022-11-03T09:48:12;89882.34;;;16.73;36.97
72585;BME280;60618;40.084;32.908;2022-11-03T09:50:39;89882.66;;;16.53;37.15
72585;BME280;60618;40.084;32.908;2022-11-03T09:53:11;89886.75;;;16.65;37.47
72585;BME280;60618;40.084;32.908;2022-11-03T09:55:38;89879.81;;;16.45;37.49
72585;BME280;60618;40.084;32.908;2022-11-03T09:58:14;89888.75;;;16.17;38.04
72585;BME280;60618;40.084;32.908;2022-11-03T10:00:42;89881.63;;;16.61;37.57
72585;BME280;60618;40.084;32.908;2022-11-03T10:03:11;89875.97;;;16.70;37.26
72585;BME280;60618;40.084;32.908;2022-11-03T10:05:39;89871.13;;;16.63;37.59
72585;BME280;60618;40.084;32.908;2022-11-03T10:08:20;89872.84;;;16.96;38.01
72585;BME280;60618;40.084;32.908;2022-11-03T10:10:49;89875.06;;;17.52;36.34
72585;BME280;60618;40.084;32.908;2022-11-03T10:13:40;89876.16;;;17.63;35.37
72585;BME280;60618;40.084;32.908;2022-11-03T10:16:10;89864.41;;;17.60;36.17
72585;BME280;60618;40.084;32.908;2022-11-03T10:18:39;89866.25;;;17.95;35.16
72585;BME280;60618;40.084;32.908;2022-11-03T10:21:17;89869.06;;;18.27;35.72
72585;BME280;60618;40.084;32.908;2022-11-03T10:23:44;89856.22;;;18.71;33.94
72585;BME280;60618;40.084;32.908;2022-11-03T10:26:14;89858.63;;;19.07;34.85
72585;BME280;60618;40.084;32.908;2022-11-03T10:28:56;89866.69;;;19.52;33.45
72585;BME280;60618;40.084;32.908;2022-11-03T10:31:31;89858.50;;;19.84;32.86
72585;BME280;60618;40.084;32.908;2022-11-03T10:33:58;89850.63;;;19.73;32.11
72585;BME280;60618;40.084;32.908;2022-11-03T10:36:30;89850.44;;;19.25;32.96
72585;BME280;60618;40.084;32.908;2022-11-03T10:38:58;89852.63;;;19.27;33.36
72585;BME280;60618;40.084;32.908;2022-11-03T10:41:27;89843.34;;;18.77;33.51
72585;BME280;60618;40.084;32.908;2022-11-03T10:46:30;89847.34;;;19.35;34.20
72585;BME280;60618;40.084;32.908;2022-11-03T10:49:18;89844.28;;;19.57;33.54
72585;BME280;60618;40.084;32.908;2022-11-03T10:51:47;89848.22;;;19.56;32.57
72585;BME280;60618;40.084;32.908;2022-11-03T10:54:20;89834.19;;;19.97;33.64
72585;BME280;60618;40.084;32.908;2022-11-03T10:56:48;89837.00;;;19.65;32.55
72585;BME280;60618;40.084;32.908;2022-11-03T10:59:17;89831.59;;;19.78;32.67
72585;BME280;60618;40.084;32.908;2022-11-03T11:01:45;89838.09;;;20.23;33.26
72585;BME280;60618;40.084;32.908;2022-11-03T11:04:16;89840.28;;;20.24;32.81
72585;BME280;60618;40.084;32.908;2022-11-03T11:06:44;89832.28;;;19.26;32.51
72585;BME280;60618;40.084;32.908;2022-11-03T11:09:14;89832.03;;;18.97;33.59
72585;BME280;60618;40.084;32.908;2022-11-03T11:12:10;89828.75;;;18.35;33.98
72585;BME280;60618;40.084;32.908;2022-11-03T11:15:05;89822.97;;;17.87;35.51
72585;BME280;60618;40.084;32.908;2022-11-03T11:17:50;89822.00;;;17.66;35.97
72585;BME280;60618;40.084;32.908;2022-11-03T11:20:18;89816.59;;;17.66;35.94
72585;BME280;60618;40.084;32.908;2022-11-03T11:22:53;89810.41;;;17.52;35.97
72585;BME280;60618;40.084;32.908;2022-11-03T11:28:26;89812.13;;;17.50;36.05
72585;BME280;60618;40.084;32.908;2022-11-03T11:33:25;89804.06;;;17.50;36.25
72585;BME280;60618;40.084;32.908;2022-11-03T11:41:15;89793.50;;;17.76;35.61
72585;BME280;60618;40.084;32.908;2022-11-03T11:43:42;89801.31;;;17.99;35.35
72585;BME280;60618;40.084;32.908;2022-11-03T11:51:16;89800.56;;;17.36;36.33
72585;BME280;60618;40.084;32.908;2022-11-03T11:53:43;89803.28;;;17.30;36.25
72585;BME280;60618;40.084;32.908;2022-11-03T11:56:16;89797.47;;;17.26;36.27
72585;BME280;60618;40.084;32.908;2022-11-03T11:58:46;89795.94;;;17.31;36.13
72585;BME280;60618;40.084;32.908;2022-11-03T12:01:20;89795.88;;;17.37;35.84
72585;BME280;60618;40.084;32.908;2022-11-03T12:03:49;89796.66;;;17.31;36.16
72585;BME280;60618;40.084;32.908;2022-11-03T12:06:31;89790.94;;;17.16;36.43
72585;BME280;60618;40.084;32.908;2022-11-03T12:09:16;89794.97;;;17.53;36.00
72585;BME280;60618;40.084;32.908;2022-11-03T12:11:49;89794.84;;;17.64;35.90
72585;BME280;60618;40.084;32.908;2022-11-03T12:17:30;89790.56;;;17.31;36.35
72585;BME280;60618;40.084;32.908;2022-11-03T12:19:57;89797.69;;;17.28;36.35
72585;BME280;60618;40.084;32.908;2022-11-03T12:24:53;89803.84;;;17.23;36.26
72585;BME280;60618;40.084;32.908;2022-11-03T12:29:51;89799.56;;;17.34;35.99
72585;BME280;60618;40.084;32.908;2022-11-03T12:32:19;89791.19;;;17.18;36.37
72585;BME280;60618;40.084;32.908;2022-11-03T12:35:04;89799.19;;;17.24;36.45
72585;BME280;60618;40.084;32.908;2022-11-03T12:37:31;89802.63;;;17.24;36.19
72585;BME280;60618;40.084;32.908;2022-11-03T12:39:58;89801.97;;;17.18;36.26
72585;BME280;60618;40.084;32.908;2022-11-03T12:42:24;89801.41;;;17.25;36.48
72585;BME280;60618;40.084;32.908;2022-11-03T12:44:52;89804.53;;;17.29;36.22
72585;BME280;60618;40.084;32.908;2022-11-03T12:47:19;89803.97;;;17.12;36.34
72585;BME280;60618;40.084;32.908;2022-11-03T12:49:46;89805.41;;;17.13;36.54
72585;BME280;60618;40.084;32.908;2022-11-03T12:52:13;89799.88;;;17.06;36.51
72585;BME280;60618;40.084;32.908;2022-11-03T12:54:40;89801.59;;;17.03;36.27
72585;BME280;60618;40.084;32.908;2022-11-03T12:57:07;89816.09;;;17.00;36.67
72585;BME280;60618;40.084;32.908;2022-11-03T12:59:34;89798.88;;;17.09;36.62
72585;BME280;60618;40.084;32.908;2022-11-03T13:02:01;89800.34;;;17.10;36.43
72585;BME280;60618;40.084;32.908;2022-11-03T13:04:28;89804.91;;;16.90;36.85
72585;BME280;60618;40.084;32.908;2022-11-03T13:06:57;89803.94;;;16.88;36.72
72585;BME280;60618;40.084;32.908;2022-11-03T13:09:24;89813.91;;;16.68;37.13
72585;BME280;60618;40.084;32.908;2022-11-03T13:11:51;89802.38;;;16.73;37.09
72585;BME280;60618;40.084;32.908;2022-11-03T13:14:18;89802.38;;;16.73;37.21
72585;BME280;60618;40.084;32.908;2022-11-03T13:16:44;89804.84;;;16.71;37.05
72585;BME280;60618;40.084;32.908;2022-11-03T13:19:11;89809.72;;;16.73;37.22
72585;BME280;60618;40.084;32.908;2022-11-03T13:21:38;89816.09;;;16.64;37.50
72585;BME280;60618;40.084;32.908;2022-11-03T13:24:05;89815.41;;;16.58;37.41
72585;BME280;60618;40.084;32.908;2022-11-03T13:26:32;89806.91;;;16.54;37.50
72585;BME280;60618;40.084;32.908;2022-11-03T13:28:59;89806.72;;;16.46;37.46
72585;BME280;60618;40.084;32.908;2022-11-03T13:31:26;89807.66;;;16.49;37.43
72585;BME280;60618;40.084;32.908;2022-11-03T13:33:53;89806.75;;;16.41;37.75
72585;BME280;60618;40.084;32.908;2022-11-03T13:36:19;89807.56;;;16.30;37.82
72585;BME280;60618;40.084;32.908;2022-11-03T13:38:46;89805.59;;;16.31;37.69
72585;BME280;60618;40.084;32.908;2022-11-03T13:41:13;89805.16;;;16.27;38.17
72585;BME280;60618;40.084;32.908;2022-11-03T13:43:40;89810.53;;;16.21;38.15
72585;BME280;60618;40.084;32.908;2022-11-03T13:46:07;89804.03;;;16.11;38.51
72585;BME280;60618;40.084;32.908;2022-11-03T13:48:34;89801.84;;;16.09;38.57
72585;BME280;60618;40.084;32.908;2022-11-03T13:51:21;89810.38;;;16.08;38.49
72585;BME280;60618;40.084;32.908;2022-11-03T13:53:48;89809.19;;;16.03;38.81
72585;BME280;60618;40.084;32.908;2022-11-03T13:56:35;89805.78;;;15.97;38.64
72585;BME280;60618;40.084;32.908;2022-11-03T13:59:21;89807.03;;;15.96;38.98
72585;BME280;60618;40.084;32.908;2022-11-03T14:01:53;89811.44;;;15.94;38.81
72585;BME280;60618;40.084;32.908;2022-11-03T14:04:40;89815.59;;;15.89;39.12
72585;BME280;60618;40.084;32.908;2022-11-03T14:07:10;89812.47;;;15.85;39.10